< < Back
Terminal Aerodrome Forecast


Current Version              Previous Versions:   1  2  3  4  5  6  7  8  9  

Terminal Aerodrome Forecast

282
FTUS42 KFFC 200300 AAB
TAFATL
TAF AMD
KATL 200347Z 2004/2106 09009KT P6SM SCT045
     FM200900 08008KT P6SM BKN015
     FM201500 09010G15KT P6SM BKN035
     FM201900 10011G15KT P6SM SCT060
     FM210000 08008KT P6SM SCT250=

Latest METAR

716
SAUS70 KWBC 200300 RRC
MTRATL
METAR KATL 200252Z 09012KT 10SM FEW022 SCT030 22/18 A3014 RMK AO2 SLP196
T02220183 51016


USA.gov is the U.S. government's official web portal to all federal, state and local government web resources and services.